sensor_id;sensor_type;location;lat;lon;timestamp;P1;durP1;ratioP1;P2;durP2;ratioP2
53267;SDS011;39156;51.176;6.738;2022-11-15T00:00:53;41.80;;;39.13;;
53267;SDS011;39156;51.176;6.738;2022-11-15T00:03:20;41.63;;;38.97;;
53267;SDS011;39156;51.176;6.738;2022-11-15T00:05:50;42.05;;;39.55;;
53267;SDS011;39156;51.176;6.738;2022-11-15T00:08:16;40.67;;;38.15;;
53267;SDS011;39156;51.176;6.738;2022-11-15T00:10:42;39.90;;;37.53;;
53267;SDS011;39156;51.176;6.738;2022-11-15T00:13:08;40.40;;;37.88;;
53267;SDS011;39156;51.176;6.738;2022-11-15T00:15:39;41.70;;;39.03;;
53267;SDS011;39156;51.176;6.738;2022-11-15T00:18:06;42.63;;;40.20;;
53267;SDS011;39156;51.176;6.738;2022-11-15T00:20:38;40.67;;;38.30;;
53267;SDS011;39156;51.176;6.738;2022-11-15T00:23:04;40.30;;;37.80;;
53267;SDS011;39156;51.176;6.738;2022-11-15T00:25:31;39.78;;;37.47;;
53267;SDS011;39156;51.176;6.738;2022-11-15T00:27:58;41.17;;;38.75;;
53267;SDS011;39156;51.176;6.738;2022-11-15T00:30:25;41.60;;;39.10;;
53267;SDS011;39156;51.176;6.738;2022-11-15T00:32:51;41.47;;;38.85;;
53267;SDS011;39156;51.176;6.738;2022-11-15T00:35:17;40.40;;;37.97;;
53267;SDS011;39156;51.176;6.738;2022-11-15T00:37:43;41.47;;;39.00;;
53267;SDS011;39156;51.176;6.738;2022-11-15T00:40:09;40.53;;;38.15;;
53267;SDS011;39156;51.176;6.738;2022-11-15T00:42:35;42.45;;;39.70;;
53267;SDS011;39156;51.176;6.738;2022-11-15T00:45:01;39.88;;;37.38;;
53267;SDS011;39156;51.176;6.738;2022-11-15T00:47:27;39.75;;;37.35;;
53267;SDS011;39156;51.176;6.738;2022-11-15T00:49:53;39.30;;;37.00;;
53267;SDS011;39156;51.176;6.738;2022-11-15T00:52:18;39.75;;;37.45;;
53267;SDS011;39156;51.176;6.738;2022-11-15T00:54:44;38.92;;;36.72;;
53267;SDS011;39156;51.176;6.738;2022-11-15T00:57:10;39.88;;;37.47;;
53267;SDS011;39156;51.176;6.738;2022-11-15T00:59:35;40.88;;;38.47;;
53267;SDS011;39156;51.176;6.738;2022-11-15T01:02:01;41.97;;;39.40;;
53267;SDS011;39156;51.176;6.738;2022-11-15T01:04:27;39.88;;;37.28;;
53267;SDS011;39156;51.176;6.738;2022-11-15T01:06:53;40.42;;;38.03;;
53267;SDS011;39156;51.176;6.738;2022-11-15T01:09:18;40.97;;;38.58;;
53267;SDS011;39156;51.176;6.738;2022-11-15T01:11:44;39.53;;;37.08;;
53267;SDS011;39156;51.176;6.738;2022-11-15T01:14:10;40.75;;;38.15;;
53267;SDS011;39156;51.176;6.738;2022-11-15T01:16:36;41.22;;;38.83;;
53267;SDS011;39156;51.176;6.738;2022-11-15T01:19:01;43.20;;;40.50;;
53267;SDS011;39156;51.176;6.738;2022-11-15T01:21:28;41.92;;;39.35;;
53267;SDS011;39156;51.176;6.738;2022-11-15T01:23:54;39.15;;;36.75;;
53267;SDS011;39156;51.176;6.738;2022-11-15T01:26:21;39.03;;;36.35;;
53267;SDS011;39156;51.176;6.738;2022-11-15T01:28:48;40.92;;;38.28;;
53267;SDS011;39156;51.176;6.738;2022-11-15T01:31:14;40.33;;;37.83;;
53267;SDS011;39156;51.176;6.738;2022-11-15T01:33:44;39.38;;;37.10;;
53267;SDS011;39156;51.176;6.738;2022-11-15T01:36:12;39.75;;;37.35;;
53267;SDS011;39156;51.176;6.738;2022-11-15T01:38:46;41.17;;;38.67;;
53267;SDS011;39156;51.176;6.738;2022-11-15T01:41:14;38.42;;;36.22;;
53267;SDS011;39156;51.176;6.738;2022-11-15T01:43:43;40.72;;;38.00;;
53267;SDS011;39156;51.176;6.738;2022-11-15T01:46:21;42.30;;;39.47;;
53267;SDS011;39156;51.176;6.738;2022-11-15T01:49:00;41.05;;;38.60;;
53267;SDS011;39156;51.176;6.738;2022-11-15T01:51:31;40.45;;;38.05;;
53267;SDS011;39156;51.176;6.738;2022-11-15T01:54:00;39.17;;;36.95;;
53267;SDS011;39156;51.176;6.738;2022-11-15T01:56:36;42.65;;;40.20;;
53267;SDS011;39156;51.176;6.738;2022-11-15T01:59:08;40.50;;;38.13;;
53267;SDS011;39156;51.176;6.738;2022-11-15T02:01:35;40.78;;;38.25;;
53267;SDS011;39156;51.176;6.738;2022-11-15T02:04:03;39.25;;;36.78;;
53267;SDS011;39156;51.176;6.738;2022-11-15T02:06:36;40.97;;;38.30;;
53267;SDS011;39156;51.176;6.738;2022-11-15T02:09:03;38.47;;;36.10;;
53267;SDS011;39156;51.176;6.738;2022-11-15T02:11:29;40.30;;;37.90;;
53267;SDS011;39156;51.176;6.738;2022-11-15T02:13:55;38.53;;;36.07;;
53267;SDS011;39156;51.176;6.738;2022-11-15T02:24:49;43.22;;;40.15;;
53267;SDS011;39156;51.176;6.738;2022-11-15T02:33:30;39.65;;;37.28;;
53267;SDS011;39156;51.176;6.738;2022-11-15T02:42:28;40.35;;;37.85;;
53267;SDS011;39156;51.176;6.738;2022-11-15T02:45:19;40.10;;;37.50;;
53267;SDS011;39156;51.176;6.738;2022-11-15T02:47:52;42.72;;;40.13;;
53267;SDS011;39156;51.176;6.738;2022-11-15T02:50:24;39.60;;;36.85;;
53267;SDS011;39156;51.176;6.738;2022-11-15T02:52:53;40.58;;;38.08;;
53267;SDS011;39156;51.176;6.738;2022-11-15T02:55:29;40.72;;;38.22;;
53267;SDS011;39156;51.176;6.738;2022-11-15T03:07:35;39.35;;;36.85;;
53267;SDS011;39156;51.176;6.738;2022-11-15T03:10:18;38.10;;;36.00;;
53267;SDS011;39156;51.176;6.738;2022-11-15T03:12:54;41.42;;;39.10;;
53267;SDS011;39156;51.176;6.738;2022-11-15T03:15:29;41.28;;;38.47;;
53267;SDS011;39156;51.176;6.738;2022-11-15T03:18:03;40.83;;;38.42;;
53267;SDS011;39156;51.176;6.738;2022-11-15T03:20:36;38.63;;;36.33;;
53267;SDS011;39156;51.176;6.738;2022-11-15T03:23:06;40.15;;;37.72;;
53267;SDS011;39156;51.176;6.738;2022-11-15T03:25:36;40.85;;;38.28;;
53267;SDS011;39156;51.176;6.738;2022-11-15T03:28:08;39.97;;;37.67;;
53267;SDS011;39156;51.176;6.738;2022-11-15T03:30:40;40.10;;;37.78;;
53267;SDS011;39156;51.176;6.738;2022-11-15T03:33:09;39.60;;;37.33;;
53267;SDS011;39156;51.176;6.738;2022-11-15T03:35:37;40.60;;;38.22;;
53267;SDS011;39156;51.176;6.738;2022-11-15T03:38:09;38.88;;;36.58;;
53267;SDS011;39156;51.176;6.738;2022-11-15T03:41:10;39.97;;;37.58;;
53267;SDS011;39156;51.176;6.738;2022-11-15T03:43:42;40.28;;;37.88;;
53267;SDS011;39156;51.176;6.738;2022-11-15T03:49:28;40.80;;;38.40;;
53267;SDS011;39156;51.176;6.738;2022-11-15T03:52:00;41.15;;;38.20;;
53267;SDS011;39156;51.176;6.738;2022-11-15T03:54:28;41.90;;;39.05;;
53267;SDS011;39156;51.176;6.738;2022-11-15T03:56:54;40.15;;;37.70;;
53267;SDS011;39156;51.176;6.738;2022-11-15T03:59:20;40.28;;;37.88;;
53267;SDS011;39156;51.176;6.738;2022-11-15T04:01:46;40.53;;;38.15;;
53267;SDS011;39156;51.176;6.738;2022-11-15T04:04:12;38.97;;;36.78;;
53267;SDS011;39156;51.176;6.738;2022-11-15T04:06:37;39.20;;;36.80;;
53267;SDS011;39156;51.176;6.738;2022-11-15T04:09:03;39.88;;;37.53;;
53267;SDS011;39156;51.176;6.738;2022-11-15T04:11:29;40.00;;;37.70;;
53267;SDS011;39156;51.176;6.738;2022-11-15T04:13:54;40.85;;;38.05;;
53267;SDS011;39156;51.176;6.738;2022-11-15T04:16:20;40.90;;;38.40;;
53267;SDS011;39156;51.176;6.738;2022-11-15T04:18:46;39.08;;;36.78;;
53267;SDS011;39156;51.176;6.738;2022-11-15T04:21:31;39.40;;;37.20;;
53267;SDS011;39156;51.176;6.738;2022-11-15T04:24:16;39.97;;;37.50;;
53267;SDS011;39156;51.176;6.738;2022-11-15T04:26:41;40.25;;;37.85;;
53267;SDS011;39156;51.176;6.738;2022-11-15T04:29:07;41.00;;;38.35;;
53267;SDS011;39156;51.176;6.738;2022-11-15T04:31:51;41.25;;;38.80;;
53267;SDS011;39156;51.176;6.738;2022-11-15T04:34:17;39.30;;;37.08;;
53267;SDS011;39156;51.176;6.738;2022-11-15T04:36:42;40.20;;;37.70;;
53267;SDS011;39156;51.176;6.738;2022-11-15T04:39:27;39.60;;;37.30;;
53267;SDS011;39156;51.176;6.738;2022-11-15T04:41:52;38.97;;;36.65;;
53267;SDS011;39156;51.176;6.738;2022-11-15T04:44:18;39.72;;;37.25;;
53267;SDS011;39156;51.176;6.738;2022-11-15T04:46:44;40.67;;;38.28;;
53267;SDS011;39156;51.176;6.738;2022-11-15T04:49:09;41.58;;;39.05;;
53267;SDS011;39156;51.176;6.738;2022-11-15T04:51:35;39.58;;;37.15;;
53267;SDS011;39156;51.176;6.738;2022-11-15T04:54:01;42.72;;;39.92;;
53267;SDS011;39156;51.176;6.738;2022-11-15T04:56:26;41.45;;;38.85;;
53267;SDS011;39156;51.176;6.738;2022-11-15T04:58:52;40.42;;;37.78;;
53267;SDS011;39156;51.176;6.738;2022-11-15T05:01:18;41.90;;;39.40;;
53267;SDS011;39156;51.176;6.738;2022-11-15T05:03:44;39.58;;;37.17;;
53267;SDS011;39156;51.176;6.738;2022-11-15T05:06:28;39.72;;;37.35;;
53267;SDS011;39156;51.176;6.738;2022-11-15T05:08:55;39.13;;;36.83;;
53267;SDS011;39156;51.176;6.738;2022-11-15T05:11:21;39.43;;;37.17;;
53267;SDS011;39156;51.176;6.738;2022-11-15T05:13:47;40.55;;;38.22;;
53267;SDS011;39156;51.176;6.738;2022-11-15T05:16:13;38.10;;;35.90;;
53267;SDS011;39156;51.176;6.738;2022-11-15T05:18:39;37.95;;;35.78;;
53267;SDS011;39156;51.176;6.738;2022-11-15T05:21:06;38.60;;;36.30;;
53267;SDS011;39156;51.176;6.738;2022-11-15T05:23:35;37.55;;;35.45;;
53267;SDS011;39156;51.176;6.738;2022-11-15T05:26:01;40.28;;;37.97;;
53267;SDS011;39156;51.176;6.738;2022-11-15T05:28:29;40.03;;;37.60;;
53267;SDS011;39156;51.176;6.738;2022-11-15T05:31:02;39.20;;;36.95;;
53267;SDS011;39156;51.176;6.738;2022-11-15T05:33:38;37.40;;;35.30;;
53267;SDS011;39156;51.176;6.738;2022-11-15T05:36:07;39.22;;;36.90;;
53267;SDS011;39156;51.176;6.738;2022-11-15T05:38:45;39.63;;;37.33;;
53267;SDS011;39156;51.176;6.738;2022-11-15T05:41:11;39.60;;;37.15;;
53267;SDS011;39156;51.176;6.738;2022-11-15T05:43:37;38.13;;;36.00;;
53267;SDS011;39156;51.176;6.738;2022-11-15T05:46:05;41.10;;;38.80;;
53267;SDS011;39156;51.176;6.738;2022-11-15T05:48:31;38.67;;;36.35;;
53267;SDS011;39156;51.176;6.738;2022-11-15T05:50:59;41.83;;;39.42;;
53267;SDS011;39156;51.176;6.738;2022-11-15T05:53:27;39.80;;;37.60;;
53267;SDS011;39156;51.176;6.738;2022-11-15T05:55:53;38.10;;;35.85;;
53267;SDS011;39156;51.176;6.738;2022-11-15T05:58:19;39.90;;;37.70;;
53267;SDS011;39156;51.176;6.738;2022-11-15T06:00:45;40.88;;;38.47;;
53267;SDS011;39156;51.176;6.738;2022-11-15T06:03:11;38.25;;;36.13;;
53267;SDS011;39156;51.176;6.738;2022-11-15T06:05:39;38.83;;;36.53;;
53267;SDS011;39156;51.176;6.738;2022-11-15T06:08:05;37.93;;;35.70;;
53267;SDS011;39156;51.176;6.738;2022-11-15T06:10:30;38.45;;;36.22;;
53267;SDS011;39156;51.176;6.738;2022-11-15T06:12:57;40.13;;;37.65;;
53267;SDS011;39156;51.176;6.738;2022-11-15T06:15:24;39.20;;;36.90;;
53267;SDS011;39156;51.176;6.738;2022-11-15T06:17:50;38.35;;;36.20;;
53267;SDS011;39156;51.176;6.738;2022-11-15T06:20:16;37.17;;;35.08;;
53267;SDS011;39156;51.176;6.738;2022-11-15T06:22:42;37.50;;;35.40;;
53267;SDS011;39156;51.176;6.738;2022-11-15T06:25:08;39.08;;;36.92;;
53267;SDS011;39156;51.176;6.738;2022-11-15T06:27:34;39.38;;;37.17;;
53267;SDS011;39156;51.176;6.738;2022-11-15T06:30:00;39.13;;;36.67;;
53267;SDS011;39156;51.176;6.738;2022-11-15T06:32:25;37.67;;;35.65;;
53267;SDS011;39156;51.176;6.738;2022-11-15T06:34:51;39.22;;;37.03;;
53267;SDS011;39156;51.176;6.738;2022-11-15T06:37:17;36.60;;;34.50;;
53267;SDS011;39156;51.176;6.738;2022-11-15T06:39:43;35.40;;;33.50;;
53267;SDS011;39156;51.176;6.738;2022-11-15T06:42:08;37.70;;;35.63;;
53267;SDS011;39156;51.176;6.738;2022-11-15T06:44:34;36.60;;;34.40;;
53267;SDS011;39156;51.176;6.738;2022-11-15T06:47:00;38.83;;;36.72;;
53267;SDS011;39156;51.176;6.738;2022-11-15T06:49:25;37.75;;;35.70;;
53267;SDS011;39156;51.176;6.738;2022-11-15T06:51:51;36.75;;;34.75;;
53267;SDS011;39156;51.176;6.738;2022-11-15T06:54:17;38.30;;;36.15;;
53267;SDS011;39156;51.176;6.738;2022-11-15T06:56:42;37.85;;;35.85;;
53267;SDS011;39156;51.176;6.738;2022-11-15T06:59:08;38.42;;;36.28;;
53267;SDS011;39156;51.176;6.738;2022-11-15T07:01:34;36.85;;;34.67;;
53267;SDS011;39156;51.176;6.738;2022-11-15T07:03:59;37.13;;;35.13;;
53267;SDS011;39156;51.176;6.738;2022-11-15T07:06:25;37.83;;;35.83;;
53267;SDS011;39156;51.176;6.738;2022-11-15T07:08:50;37.20;;;34.90;;
53267;SDS011;39156;51.176;6.738;2022-11-15T07:11:16;36.95;;;34.67;;
53267;SDS011;39156;51.176;6.738;2022-11-15T07:13:42;38.55;;;36.38;;
53267;SDS011;39156;51.176;6.738;2022-11-15T07:16:09;36.72;;;34.78;;
53267;SDS011;39156;51.176;6.738;2022-11-15T07:18:36;37.83;;;35.65;;
53267;SDS011;39156;51.176;6.738;2022-11-15T07:21:04;37.20;;;35.10;;
53267;SDS011;39156;51.176;6.738;2022-11-15T07:23:32;37.17;;;35.08;;
53267;SDS011;39156;51.176;6.738;2022-11-15T07:25:58;37.13;;;34.97;;
53267;SDS011;39156;51.176;6.738;2022-11-15T07:28:25;37.35;;;35.35;;
53267;SDS011;39156;51.176;6.738;2022-11-15T07:30:51;37.42;;;35.33;;
53267;SDS011;39156;51.176;6.738;2022-11-15T07:33:17;38.95;;;36.80;;
53267;SDS011;39156;51.176;6.738;2022-11-15T07:35:42;37.00;;;34.90;;
53267;SDS011;39156;51.176;6.738;2022-11-15T07:38:11;36.63;;;34.70;;
53267;SDS011;39156;51.176;6.738;2022-11-15T07:40:37;37.35;;;35.25;;
53267;SDS011;39156;51.176;6.738;2022-11-15T07:43:03;35.55;;;33.65;;
53267;SDS011;39156;51.176;6.738;2022-11-15T07:45:32;37.53;;;35.42;;
53267;SDS011;39156;51.176;6.738;2022-11-15T07:48:00;36.45;;;34.45;;
53267;SDS011;39156;51.176;6.738;2022-11-15T07:50:26;35.53;;;33.53;;
53267;SDS011;39156;51.176;6.738;2022-11-15T07:52:58;36.03;;;34.13;;
53267;SDS011;39156;51.176;6.738;2022-11-15T07:55:25;39.20;;;37.00;;
53267;SDS011;39156;51.176;6.738;2022-11-15T07:57:53;36.92;;;34.92;;
53267;SDS011;39156;51.176;6.738;2022-11-15T08:00:25;38.05;;;36.05;;
53267;SDS011;39156;51.176;6.738;2022-11-15T08:02:51;35.88;;;33.97;;
53267;SDS011;39156;51.176;6.738;2022-11-15T08:05:16;35.92;;;33.92;;
53267;SDS011;39156;51.176;6.738;2022-11-15T08:07:42;37.13;;;35.08;;
53267;SDS011;39156;51.176;6.738;2022-11-15T08:10:08;37.40;;;35.40;;
53267;SDS011;39156;51.176;6.738;2022-11-15T08:12:33;33.75;;;31.92;;
53267;SDS011;39156;51.176;6.738;2022-11-15T08:14:59;36.95;;;34.83;;
53267;SDS011;39156;51.176;6.738;2022-11-15T08:17:25;38.00;;;36.00;;
53267;SDS011;39156;51.176;6.738;2022-11-15T08:19:51;34.92;;;33.05;;
53267;SDS011;39156;51.176;6.738;2022-11-15T08:22:16;37.40;;;35.13;;
53267;SDS011;39156;51.176;6.738;2022-11-15T08:24:43;35.63;;;33.72;;
53267;SDS011;39156;51.176;6.738;2022-11-15T08:27:09;37.03;;;35.00;;
53267;SDS011;39156;51.176;6.738;2022-11-15T08:29:45;35.10;;;33.20;;
53267;SDS011;39156;51.176;6.738;2022-11-15T08:32:13;35.22;;;33.22;;
53267;SDS011;39156;51.176;6.738;2022-11-15T08:34:39;34.88;;;32.97;;
53267;SDS011;39156;51.176;6.738;2022-11-15T08:37:05;32.95;;;31.15;;
53267;SDS011;39156;51.176;6.738;2022-11-15T08:39:31;34.72;;;32.83;;
53267;SDS011;39156;51.176;6.738;2022-11-15T08:41:56;34.33;;;32.40;;
53267;SDS011;39156;51.176;6.738;2022-11-15T08:44:23;35.75;;;33.78;;
53267;SDS011;39156;51.176;6.738;2022-11-15T08:46:49;35.97;;;33.90;;
53267;SDS011;39156;51.176;6.738;2022-11-15T08:49:15;35.15;;;33.30;;
53267;SDS011;39156;51.176;6.738;2022-11-15T08:51:41;33.43;;;31.60;;
53267;SDS011;39156;51.176;6.738;2022-11-15T08:54:06;32.72;;;31.02;;
53267;SDS011;39156;51.176;6.738;2022-11-15T08:56:32;33.33;;;31.58;;
53267;SDS011;39156;51.176;6.738;2022-11-15T08:58:58;32.45;;;30.75;;
53267;SDS011;39156;51.176;6.738;2022-11-15T09:01:23;31.98;;;30.27;;
53267;SDS011;39156;51.176;6.738;2022-11-15T09:03:49;31.77;;;30.07;;
53267;SDS011;39156;51.176;6.738;2022-11-15T09:06:15;31.95;;;30.25;;
53267;SDS011;39156;51.176;6.738;2022-11-15T09:08:41;33.00;;;31.10;;
53267;SDS011;39156;51.176;6.738;2022-11-15T09:11:07;33.70;;;31.80;;
53267;SDS011;39156;51.176;6.738;2022-11-15T09:13:35;32.05;;;30.35;;
53267;SDS011;39156;51.176;6.738;2022-11-15T09:16:04;32.88;;;31.08;;
53267;SDS011;39156;51.176;6.738;2022-11-15T09:18:31;31.73;;;30.02;;
53267;SDS011;39156;51.176;6.738;2022-11-15T09:21:00;32.03;;;30.33;;
53267;SDS011;39156;51.176;6.738;2022-11-15T09:23:27;31.13;;;29.42;;
53267;SDS011;39156;51.176;6.738;2022-11-15T09:25:57;31.20;;;29.53;;
53267;SDS011;39156;51.176;6.738;2022-11-15T09:28:26;31.20;;;29.60;;
53267;SDS011;39156;51.176;6.738;2022-11-15T09:30:55;31.80;;;29.98;;
53267;SDS011;39156;51.176;6.738;2022-11-15T09:33:25;30.60;;;29.00;;
53267;SDS011;39156;51.176;6.738;2022-11-15T09:35:51;29.85;;;28.15;;
53267;SDS011;39156;51.176;6.738;2022-11-15T09:38:17;31.27;;;29.67;;
53267;SDS011;39156;51.176;6.738;2022-11-15T09:40:43;30.23;;;28.57;;
53267;SDS011;39156;51.176;6.738;2022-11-15T09:43:23;30.50;;;28.80;;
53267;SDS011;39156;51.176;6.738;2022-11-15T09:49:08;30.30;;;28.70;;
53267;SDS011;39156;51.176;6.738;2022-11-15T09:57:04;30.63;;;28.92;;
53267;SDS011;39156;51.176;6.738;2022-11-15T10:00:17;30.67;;;28.87;;
53267;SDS011;39156;51.176;6.738;2022-11-15T10:03:08;31.85;;;29.80;;
53267;SDS011;39156;51.176;6.738;2022-11-15T10:05:55;29.70;;;28.05;;
53267;SDS011;39156;51.176;6.738;2022-11-15T10:08:34;30.40;;;28.80;;
53267;SDS011;39156;51.176;6.738;2022-11-15T10:11:16;28.90;;;27.40;;
53267;SDS011;39156;51.176;6.738;2022-11-15T10:13:50;29.25;;;27.75;;
53267;SDS011;39156;51.176;6.738;2022-11-15T10:22:03;31.25;;;29.58;;
53267;SDS011;39156;51.176;6.738;2022-11-15T10:24:46;29.70;;;28.00;;
53267;SDS011;39156;51.176;6.738;2022-11-15T10:27:17;30.23;;;28.30;;
53267;SDS011;39156;51.176;6.738;2022-11-15T10:29:45;29.70;;;27.90;;
53267;SDS011;39156;51.176;6.738;2022-11-15T10:32:14;29.42;;;27.83;;
53267;SDS011;39156;51.176;6.738;2022-11-15T10:34:42;29.67;;;28.08;;
53267;SDS011;39156;51.176;6.738;2022-11-15T10:37:08;31.95;;;30.15;;
53267;SDS011;39156;51.176;6.738;2022-11-15T10:39:34;29.73;;;28.13;;
53267;SDS011;39156;51.176;6.738;2022-11-15T10:42:46;29.83;;;28.13;;
53267;SDS011;39156;51.176;6.738;2022-11-15T10:44:55;29.45;;;27.95;;
53267;SDS011;39156;51.176;6.738;2022-11-15T10:47:22;32.03;;;30.33;;
53267;SDS011;39156;51.176;6.738;2022-11-15T10:49:59;32.58;;;30.77;;
53267;SDS011;39156;51.176;6.738;2022-11-15T10:52:28;30.50;;;28.80;;
53267;SDS011;39156;51.176;6.738;2022-11-15T10:57:30;30.10;;;28.50;;
53267;SDS011;39156;51.176;6.738;2022-11-15T11:00:03;31.92;;;30.13;;
53267;SDS011;39156;51.176;6.738;2022-11-15T11:05:29;31.20;;;29.60;;
53267;SDS011;39156;51.176;6.738;2022-11-15T11:08:02;32.05;;;30.25;;
53267;SDS011;39156;51.176;6.738;2022-11-15T11:10:53;31.58;;;29.77;;
53267;SDS011;39156;51.176;6.738;2022-11-15T11:13:22;31.70;;;29.90;;
53267;SDS011;39156;51.176;6.738;2022-11-15T11:18:51;31.80;;;30.10;;
53267;SDS011;39156;51.176;6.738;2022-11-15T11:24:22;32.78;;;30.77;;
53267;SDS011;39156;51.176;6.738;2022-11-15T11:30:41;31.33;;;29.73;;
53267;SDS011;39156;51.176;6.738;2022-11-15T11:34:13;33.72;;;32.03;;
53267;SDS011;39156;51.176;6.738;2022-11-15T11:36:50;32.13;;;30.42;;
53267;SDS011;39156;51.176;6.738;2022-11-15T11:39:56;32.58;;;30.88;;
53267;SDS011;39156;51.176;6.738;2022-11-15T11:43:30;33.15;;;31.35;;
53267;SDS011;39156;51.176;6.738;2022-11-15T11:51:14;32.55;;;30.85;;
53267;SDS011;39156;51.176;6.738;2022-11-15T11:53:54;30.85;;;29.23;;
53267;SDS011;39156;51.176;6.738;2022-11-15T11:56:39;32.28;;;30.55;;
53267;SDS011;39156;51.176;6.738;2022-11-15T12:01:59;32.35;;;30.60;;
53267;SDS011;39156;51.176;6.738;2022-11-15T12:05:13;32.60;;;30.83;;
53267;SDS011;39156;51.176;6.738;2022-11-15T12:07:49;31.90;;;30.10;;
53267;SDS011;39156;51.176;6.738;2022-11-15T12:15:45;32.83;;;30.92;;
53267;SDS011;39156;51.176;6.738;2022-11-15T12:18:21;32.65;;;30.85;;
53267;SDS011;39156;51.176;6.738;2022-11-15T12:21:01;34.10;;;32.30;;
53267;SDS011;39156;51.176;6.738;2022-11-15T12:24:01;32.63;;;30.60;;
53267;SDS011;39156;51.176;6.738;2022-11-15T12:26:42;34.38;;;32.58;;
53267;SDS011;39156;51.176;6.738;2022-11-15T12:29:23;33.05;;;31.25;;
53267;SDS011;39156;51.176;6.738;2022-11-15T12:31:56;33.10;;;31.35;;
53267;SDS011;39156;51.176;6.738;2022-11-15T12:36:53;32.80;;;30.83;;
53267;SDS011;39156;51.176;6.738;2022-11-15T12:39:19;33.50;;;31.55;;
53267;SDS011;39156;51.176;6.738;2022-11-15T12:47:04;32.65;;;30.77;;
53267;SDS011;39156;51.176;6.738;2022-11-15T13:02:26;32.40;;;30.40;;
53267;SDS011;39156;51.176;6.738;2022-11-15T13:17:42;31.27;;;29.48;;
53267;SDS011;39156;51.176;6.738;2022-11-15T13:20:22;32.95;;;31.05;;
53267;SDS011;39156;51.176;6.738;2022-11-15T13:28:36;33.28;;;30.08;;
53267;SDS011;39156;51.176;6.738;2022-11-15T13:34:19;30.98;;;29.23;;
53267;SDS011;39156;51.176;6.738;2022-11-15T13:36:55;31.95;;;30.08;;
53267;SDS011;39156;51.176;6.738;2022-11-15T13:39:31;31.58;;;29.88;;
53267;SDS011;39156;51.176;6.738;2022-11-15T13:41:59;33.17;;;31.30;;
53267;SDS011;39156;51.176;6.738;2022-11-15T13:44:26;31.33;;;29.73;;
53267;SDS011;39156;51.176;6.738;2022-11-15T13:47:04;33.65;;;31.67;;
53267;SDS011;39156;51.176;6.738;2022-11-15T13:52:01;31.98;;;30.38;;
53267;SDS011;39156;51.176;6.738;2022-11-15T13:54:34;31.70;;;29.88;;
53267;SDS011;39156;51.176;6.738;2022-11-15T13:57:10;32.92;;;31.00;;
53267;SDS011;39156;51.176;6.738;2022-11-15T13:59:45;33.05;;;30.98;;
53267;SDS011;39156;51.176;6.738;2022-11-15T14:02:25;32.30;;;30.45;;
53267;SDS011;39156;51.176;6.738;2022-11-15T14:04:58;34.17;;;32.15;;
53267;SDS011;39156;51.176;6.738;2022-11-15T14:10:47;33.20;;;31.40;;
53267;SDS011;39156;51.176;6.738;2022-11-15T14:13:29;34.67;;;32.80;;
53267;SDS011;39156;51.176;6.738;2022-11-15T14:16:12;33.55;;;31.70;;
53267;SDS011;39156;51.176;6.738;2022-11-15T14:18:45;33.60;;;31.80;;
53267;SDS011;39156;51.176;6.738;2022-11-15T14:21:14;33.75;;;31.95;;
53267;SDS011;39156;51.176;6.738;2022-11-15T14:23:40;32.95;;;30.58;;
53267;SDS011;39156;51.176;6.738;2022-11-15T14:26:10;33.07;;;31.37;;
53267;SDS011;39156;51.176;6.738;2022-11-15T14:32:05;33.95;;;31.95;;
53267;SDS011;39156;51.176;6.738;2022-11-15T14:34:38;33.90;;;31.80;;
53267;SDS011;39156;51.176;6.738;2022-11-15T14:37:03;36.42;;;34.42;;
53267;SDS011;39156;51.176;6.738;2022-11-15T14:39:29;36.08;;;33.47;;
53267;SDS011;39156;51.176;6.738;2022-11-15T14:41:55;34.80;;;32.73;;
53267;SDS011;39156;51.176;6.738;2022-11-15T14:44:21;34.42;;;32.58;;
53267;SDS011;39156;51.176;6.738;2022-11-15T14:46:46;36.05;;;33.95;;
53267;SDS011;39156;51.176;6.738;2022-11-15T14:49:13;35.00;;;32.90;;
53267;SDS011;39156;51.176;6.738;2022-11-15T14:51:40;35.55;;;33.17;;
53267;SDS011;39156;51.176;6.738;2022-11-15T14:54:08;41.30;;;34.70;;
53267;SDS011;39156;51.176;6.738;2022-11-15T14:56:35;35.45;;;33.15;;
53267;SDS011;39156;51.176;6.738;2022-11-15T14:59:01;36.95;;;34.03;;
53267;SDS011;39156;51.176;6.738;2022-11-15T15:01:27;44.20;;;35.03;;
53267;SDS011;39156;51.176;6.738;2022-11-15T15:03:53;38.78;;;34.88;;
53267;SDS011;39156;51.176;6.738;2022-11-15T15:06:21;39.95;;;35.90;;
53267;SDS011;39156;51.176;6.738;2022-11-15T15:08:47;37.33;;;34.15;;
53267;SDS011;39156;51.176;6.738;2022-11-15T15:13:46;33.85;;;31.70;;
53267;SDS011;39156;51.176;6.738;2022-11-15T15:16:12;33.70;;;31.38;;
53267;SDS011;39156;51.176;6.738;2022-11-15T15:18:37;33.75;;;31.95;;
53267;SDS011;39156;51.176;6.738;2022-11-15T15:21:04;32.60;;;30.80;;
53267;SDS011;39156;51.176;6.738;2022-11-15T15:23:55;32.53;;;30.77;;
53267;SDS011;39156;51.176;6.738;2022-11-15T15:26:22;35.50;;;33.63;;
53267;SDS011;39156;51.176;6.738;2022-11-15T15:28:48;33.78;;;31.77;;
53267;SDS011;39156;51.176;6.738;2022-11-15T15:31:16;35.22;;;33.17;;
53267;SDS011;39156;51.176;6.738;2022-11-15T15:33:42;33.22;;;31.40;;
53267;SDS011;39156;51.176;6.738;2022-11-15T15:36:11;34.55;;;32.30;;
53267;SDS011;39156;51.176;6.738;2022-11-15T15:38:38;35.85;;;33.58;;
53267;SDS011;39156;51.176;6.738;2022-11-15T15:41:14;34.83;;;32.88;;
53267;SDS011;39156;51.176;6.738;2022-11-15T15:43:41;33.83;;;31.90;;
53267;SDS011;39156;51.176;6.738;2022-11-15T15:46:14;35.35;;;33.30;;
53267;SDS011;39156;51.176;6.738;2022-11-15T15:48:41;33.80;;;31.65;;
53267;SDS011;39156;51.176;6.738;2022-11-15T15:51:07;33.75;;;31.65;;
53267;SDS011;39156;51.176;6.738;2022-11-15T15:53:33;33.63;;;31.73;;
53267;SDS011;39156;51.176;6.738;2022-11-15T15:55:59;36.15;;;33.97;;
53267;SDS011;39156;51.176;6.738;2022-11-15T15:58:25;36.30;;;33.83;;
53267;SDS011;39156;51.176;6.738;2022-11-15T16:00:51;36.08;;;33.50;;
53267;SDS011;39156;51.176;6.738;2022-11-15T16:03:16;33.58;;;31.38;;
53267;SDS011;39156;51.176;6.738;2022-11-15T16:05:42;33.50;;;31.58;;
53267;SDS011;39156;51.176;6.738;2022-11-15T16:08:12;33.75;;;31.85;;
53267;SDS011;39156;51.176;6.738;2022-11-15T16:10:47;32.97;;;31.08;;
53267;SDS011;39156;51.176;6.738;2022-11-15T16:13:13;34.28;;;32.40;;
53267;SDS011;39156;51.176;6.738;2022-11-15T16:15:39;35.38;;;33.33;;
53267;SDS011;39156;51.176;6.738;2022-11-15T16:18:04;34.53;;;32.38;;
53267;SDS011;39156;51.176;6.738;2022-11-15T16:20:39;33.58;;;31.67;;
53267;SDS011;39156;51.176;6.738;2022-11-15T16:23:10;33.08;;;31.13;;
53267;SDS011;39156;51.176;6.738;2022-11-15T16:25:47;34.15;;;32.15;;
53267;SDS011;39156;51.176;6.738;2022-11-15T16:28:21;35.65;;;33.17;;
53267;SDS011;39156;51.176;6.738;2022-11-15T16:31:00;34.45;;;32.55;;
53267;SDS011;39156;51.176;6.738;2022-11-15T16:33:32;34.78;;;32.88;;
53267;SDS011;39156;51.176;6.738;2022-11-15T16:35:58;32.97;;;30.98;;
53267;SDS011;39156;51.176;6.738;2022-11-15T16:38:24;35.50;;;33.47;;
53267;SDS011;39156;51.176;6.738;2022-11-15T16:40:51;32.53;;;30.77;;
53267;SDS011;39156;51.176;6.738;2022-11-15T16:43:17;34.53;;;32.50;;
53267;SDS011;39156;51.176;6.738;2022-11-15T16:45:42;33.40;;;31.60;;
53267;SDS011;39156;51.176;6.738;2022-11-15T16:48:21;33.03;;;30.75;;